Terminal Aerodrome Forecast
Issued by NWS Corpus Christi, TX

Current Version | Previous Version | Text Only | Print | Product List | Glossary On
Versions: 1 2 3 4 5 6 7 8 9 10 11 12
000
FTUS44 KCRP 222330
TAFVCT
TAF
KVCT 222330Z 2300/2324 16014G18KT P6SM FEW035 BKN250
     FM230200 17006KT P6SM SCT020 BKN250
     FM231200 21006KT P6SM VCSH SCT050 BKN250
     FM231600 19014G18KT P6SM SCT040 BKN150
     FM232200 16015G23KT P6SM SCT150=

USA.gov is the U.S. government's official web portal to all federal, state and local government web resources and services.